sensor_id;sensor_type;location;lat;lon;timestamp;pressure;altitude;pressure_sealevel;temperature;humidity
26531;BME280;14201;43.188;24.160;2023-01-13T00:01:50;100258.75;;;3.54;97.50
26531;BME280;14201;43.188;24.160;2023-01-13T00:04:15;100252.88;;;3.45;99.85
26531;BME280;14201;43.188;24.160;2023-01-13T00:06:41;100258.53;;;3.41;100.00
26531;BME280;14201;43.188;24.160;2023-01-13T00:09:06;100255.06;;;3.73;98.27
26531;BME280;14201;43.188;24.160;2023-01-13T00:11:32;100266.59;;;3.88;97.61
26531;BME280;14201;43.188;24.160;2023-01-13T00:13:57;100270.94;;;3.89;96.82
26531;BME280;14201;43.188;24.160;2023-01-13T00:16:23;100270.00;;;3.77;97.41
26531;BME280;14201;43.188;24.160;2023-01-13T00:18:48;100270.41;;;3.71;97.60
26531;BME280;14201;43.188;24.160;2023-01-13T00:21:19;100269.88;;;3.75;98.36
26531;BME280;14201;43.188;24.160;2023-01-13T00:23:45;100268.50;;;3.91;97.22
26531;BME280;14201;43.188;24.160;2023-01-13T00:26:14;100273.78;;;3.92;96.75
26531;BME280;14201;43.188;24.160;2023-01-13T00:28:40;100275.09;;;3.87;96.49
26531;BME280;14201;43.188;24.160;2023-01-13T00:31:16;100285.16;;;3.84;96.90
26531;BME280;14201;43.188;24.160;2023-01-13T00:33:42;100274.72;;;3.83;96.75
26531;BME280;14201;43.188;24.160;2023-01-13T00:36:08;100277.91;;;3.90;96.87
26531;BME280;14201;43.188;24.160;2023-01-13T00:38:35;100284.56;;;3.99;96.11
26531;BME280;14201;43.188;24.160;2023-01-13T00:41:04;100277.63;;;3.98;96.53
26531;BME280;14201;43.188;24.160;2023-01-13T00:43:30;100282.28;;;3.91;96.27
26531;BME280;14201;43.188;24.160;2023-01-13T00:45:56;100280.72;;;3.93;96.11
26531;BME280;14201;43.188;24.160;2023-01-13T00:48:22;100276.22;;;3.91;96.55
26531;BME280;14201;43.188;24.160;2023-01-13T00:50:58;100272.41;;;3.86;97.00
26531;BME280;14201;43.188;24.160;2023-01-13T00:53:24;100277.13;;;3.91;96.70
26531;BME280;14201;43.188;24.160;2023-01-13T00:55:57;100269.38;;;3.91;96.74
26531;BME280;14201;43.188;24.160;2023-01-13T00:58:22;100265.09;;;3.80;97.03
26531;BME280;14201;43.188;24.160;2023-01-13T01:00:48;100266.41;;;3.75;97.68
26531;BME280;14201;43.188;24.160;2023-01-13T01:03:13;100266.66;;;3.78;98.35
26531;BME280;14201;43.188;24.160;2023-01-13T01:05:39;100269.88;;;3.75;98.85
26531;BME280;14201;43.188;24.160;2023-01-13T01:08:04;100260.22;;;3.73;99.56
26531;BME280;14201;43.188;24.160;2023-01-13T01:10:29;100260.16;;;3.83;99.42
26531;BME280;14201;43.188;24.160;2023-01-13T01:12:55;100257.84;;;3.86;99.30
26531;BME280;14201;43.188;24.160;2023-01-13T01:15:20;100259.00;;;3.90;99.13
26531;BME280;14201;43.188;24.160;2023-01-13T01:17:46;100256.88;;;3.96;99.80
26531;BME280;14201;43.188;24.160;2023-01-13T01:20:11;100257.78;;;3.97;99.26
26531;BME280;14201;43.188;24.160;2023-01-13T01:22:37;100251.19;;;4.00;99.56
26531;BME280;14201;43.188;24.160;2023-01-13T01:25:02;100252.31;;;4.04;98.62
26531;BME280;14201;43.188;24.160;2023-01-13T01:27:28;100259.03;;;4.02;98.43
26531;BME280;14201;43.188;24.160;2023-01-13T01:29:53;100248.97;;;4.05;98.05
26531;BME280;14201;43.188;24.160;2023-01-13T01:32:18;100249.44;;;4.11;97.94
26531;BME280;14201;43.188;24.160;2023-01-13T01:34:44;100249.81;;;4.16;97.40
26531;BME280;14201;43.188;24.160;2023-01-13T01:37:09;100249.00;;;4.17;96.48
26531;BME280;14201;43.188;24.160;2023-01-13T01:39:34;100243.63;;;4.13;97.00
26531;BME280;14201;43.188;24.160;2023-01-13T01:42:00;100251.72;;;4.18;97.47
26531;BME280;14201;43.188;24.160;2023-01-13T01:44:48;100243.22;;;4.19;96.88
26531;BME280;14201;43.188;24.160;2023-01-13T01:47:14;100241.41;;;4.18;97.15
26531;BME280;14201;43.188;24.160;2023-01-13T01:49:42;100246.25;;;4.25;97.06
26531;BME280;14201;43.188;24.160;2023-01-13T01:52:13;100241.22;;;4.27;96.31
26531;BME280;14201;43.188;24.160;2023-01-13T01:57:04;100246.16;;;4.36;95.36
26531;BME280;14201;43.188;24.160;2023-01-13T01:59:30;100244.00;;;4.30;95.69
26531;BME280;14201;43.188;24.160;2023-01-13T02:01:56;100248.84;;;4.25;95.89
26531;BME280;14201;43.188;24.160;2023-01-13T02:04:23;100241.88;;;4.24;96.59
26531;BME280;14201;43.188;24.160;2023-01-13T02:06:50;100245.25;;;4.23;96.49
26531;BME280;14201;43.188;24.160;2023-01-13T02:09:16;100243.44;;;4.22;96.81
26531;BME280;14201;43.188;24.160;2023-01-13T02:11:42;100241.78;;;4.23;96.23
26531;BME280;14201;43.188;24.160;2023-01-13T02:14:25;100243.69;;;4.25;96.42
26531;BME280;14201;43.188;24.160;2023-01-13T02:30:23;100234.50;;;4.29;94.71
26531;BME280;14201;43.188;24.160;2023-01-13T02:38:43;100236.28;;;4.30;94.41
26531;BME280;14201;43.188;24.160;2023-01-13T02:41:13;100231.59;;;4.36;94.79
26531;BME280;14201;43.188;24.160;2023-01-13T02:43:59;100237.41;;;4.33;94.69
26531;BME280;14201;43.188;24.160;2023-01-13T02:49:03;100234.38;;;4.27;94.75
26531;BME280;14201;43.188;24.160;2023-01-13T02:51:30;100234.25;;;4.26;95.30
26531;BME280;14201;43.188;24.160;2023-01-13T02:54:08;100235.50;;;4.31;95.27
26531;BME280;14201;43.188;24.160;2023-01-13T02:56:37;100238.22;;;4.32;95.45
26531;BME280;14201;43.188;24.160;2023-01-13T02:59:04;100235.41;;;4.29;95.50
26531;BME280;14201;43.188;24.160;2023-01-13T03:01:30;100236.16;;;4.28;95.30
26531;BME280;14201;43.188;24.160;2023-01-13T03:03:56;100240.22;;;4.25;95.68
26531;BME280;14201;43.188;24.160;2023-01-13T03:08:54;100240.09;;;4.23;96.51
26531;BME280;14201;43.188;24.160;2023-01-13T03:11:25;100239.97;;;4.22;96.39
26531;BME280;14201;43.188;24.160;2023-01-13T03:16:28;100235.06;;;4.25;97.00
26531;BME280;14201;43.188;24.160;2023-01-13T03:21:22;100231.00;;;4.28;96.98
26531;BME280;14201;43.188;24.160;2023-01-13T03:29:14;100235.72;;;4.34;96.41
26531;BME280;14201;43.188;24.160;2023-01-13T03:32:16;100242.41;;;4.42;96.13
26531;BME280;14201;43.188;24.160;2023-01-13T03:34:35;100238.25;;;4.44;95.83
26531;BME280;14201;43.188;24.160;2023-01-13T03:37:03;100238.34;;;4.46;95.56
26531;BME280;14201;43.188;24.160;2023-01-13T03:39:32;100240.16;;;4.47;95.55
26531;BME280;14201;43.188;24.160;2023-01-13T03:42:00;100247.13;;;4.48;95.97
26531;BME280;14201;43.188;24.160;2023-01-13T03:44:32;100245.56;;;4.50;96.01
26531;BME280;14201;43.188;24.160;2023-01-13T03:49:30;100245.28;;;4.35;96.21
26531;BME280;14201;43.188;24.160;2023-01-13T03:51:57;100241.56;;;4.31;97.18
26531;BME280;14201;43.188;24.160;2023-01-13T03:54:27;100240.78;;;4.32;97.34
26531;BME280;14201;43.188;24.160;2023-01-13T03:56:55;100246.53;;;4.40;96.74
26531;BME280;14201;43.188;24.160;2023-01-13T03:59:24;100242.84;;;4.48;96.83
26531;BME280;14201;43.188;24.160;2023-01-13T04:09:11;100245.31;;;4.47;96.29
26531;BME280;14201;43.188;24.160;2023-01-13T04:11:41;100248.44;;;4.43;96.80
26531;BME280;14201;43.188;24.160;2023-01-13T04:14:07;100246.63;;;4.42;96.94
26531;BME280;14201;43.188;24.160;2023-01-13T04:16:35;100244.06;;;4.42;97.51
26531;BME280;14201;43.188;24.160;2023-01-13T04:19:01;100253.59;;;4.43;97.51
26531;BME280;14201;43.188;24.160;2023-01-13T04:21:26;100248.19;;;4.40;97.84
26531;BME280;14201;43.188;24.160;2023-01-13T04:23:52;100252.72;;;4.42;98.12
26531;BME280;14201;43.188;24.160;2023-01-13T04:26:18;100249.16;;;4.52;97.60
26531;BME280;14201;43.188;24.160;2023-01-13T04:28:44;100240.41;;;4.50;97.34
26531;BME280;14201;43.188;24.160;2023-01-13T04:31:09;100249.59;;;4.46;97.55
26531;BME280;14201;43.188;24.160;2023-01-13T04:33:35;100243.50;;;4.46;97.65
26531;BME280;14201;43.188;24.160;2023-01-13T04:36:00;100247.66;;;4.44;97.67
26531;BME280;14201;43.188;24.160;2023-01-13T04:38:25;100247.66;;;4.44;97.91
26531;BME280;14201;43.188;24.160;2023-01-13T04:40:51;100245.78;;;4.53;97.38
26531;BME280;14201;43.188;24.160;2023-01-13T04:43:16;100241.50;;;4.53;97.13
26531;BME280;14201;43.188;24.160;2023-01-13T04:45:42;100247.72;;;4.56;97.01
26531;BME280;14201;43.188;24.160;2023-01-13T04:48:07;100244.56;;;4.60;96.64
26531;BME280;14201;43.188;24.160;2023-01-13T04:50:33;100247.38;;;4.63;96.20
26531;BME280;14201;43.188;24.160;2023-01-13T04:52:59;100254.34;;;4.64;96.57
26531;BME280;14201;43.188;24.160;2023-01-13T04:55:25;100254.13;;;4.72;95.29
26531;BME280;14201;43.188;24.160;2023-01-13T04:57:50;100247.63;;;4.78;95.61
26531;BME280;14201;43.188;24.160;2023-01-13T05:00:17;100256.69;;;4.72;94.74
26531;BME280;14201;43.188;24.160;2023-01-13T05:02:43;100255.78;;;4.60;96.06
26531;BME280;14201;43.188;24.160;2023-01-13T05:05:08;100251.06;;;4.54;95.90
26531;BME280;14201;43.188;24.160;2023-01-13T05:07:34;100258.22;;;4.47;96.91
26531;BME280;14201;43.188;24.160;2023-01-13T05:10:00;100256.31;;;4.44;97.50
26531;BME280;14201;43.188;24.160;2023-01-13T05:12:25;100267.16;;;4.40;98.03
26531;BME280;14201;43.188;24.160;2023-01-13T05:15:12;100267.50;;;4.45;98.12
26531;BME280;14201;43.188;24.160;2023-01-13T05:17:56;100263.50;;;4.48;97.79
26531;BME280;14201;43.188;24.160;2023-01-13T05:20:22;100269.53;;;4.49;97.98
26531;BME280;14201;43.188;24.160;2023-01-13T05:22:48;100264.84;;;4.55;98.09
26531;BME280;14201;43.188;24.160;2023-01-13T05:25:32;100272.47;;;4.53;97.66
26531;BME280;14201;43.188;24.160;2023-01-13T05:27:59;100265.09;;;4.58;97.24
26531;BME280;14201;43.188;24.160;2023-01-13T05:30:26;100266.09;;;4.60;97.51
26531;BME280;14201;43.188;24.160;2023-01-13T05:32:51;100266.88;;;4.59;97.69
26531;BME280;14201;43.188;24.160;2023-01-13T05:35:17;100265.09;;;4.58;97.41
26531;BME280;14201;43.188;24.160;2023-01-13T05:37:43;100266.88;;;4.59;97.98
26531;BME280;14201;43.188;24.160;2023-01-13T05:40:09;100265.97;;;4.59;97.96
26531;BME280;14201;43.188;24.160;2023-01-13T05:43:00;100269.25;;;4.56;98.33
26531;BME280;14201;43.188;24.160;2023-01-13T05:45:43;100267.78;;;4.60;97.92
26531;BME280;14201;43.188;24.160;2023-01-13T05:48:10;100268.69;;;4.60;98.38
26531;BME280;14201;43.188;24.160;2023-01-13T05:50:35;100271.59;;;4.65;98.44
26531;BME280;14201;43.188;24.160;2023-01-13T05:53:01;100270.84;;;4.66;97.80
26531;BME280;14201;43.188;24.160;2023-01-13T05:55:26;100274.44;;;4.68;97.92
26531;BME280;14201;43.188;24.160;2023-01-13T05:57:51;100273.63;;;4.69;97.85
26531;BME280;14201;43.188;24.160;2023-01-13T06:00:17;100271.16;;;4.70;97.87
26531;BME280;14201;43.188;24.160;2023-01-13T06:02:43;100270.97;;;4.67;98.00
26531;BME280;14201;43.188;24.160;2023-01-13T06:05:08;100275.44;;;4.70;97.59
26531;BME280;14201;43.188;24.160;2023-01-13T06:07:33;100275.69;;;4.73;98.03
26531;BME280;14201;43.188;24.160;2023-01-13T06:09:59;100278.16;;;4.71;97.68
26531;BME280;14201;43.188;24.160;2023-01-13T06:12:24;100287.00;;;4.75;97.72
26531;BME280;14201;43.188;24.160;2023-01-13T06:14:50;100282.97;;;4.79;97.67
26531;BME280;14201;43.188;24.160;2023-01-13T06:17:15;100281.19;;;4.78;97.74
26531;BME280;14201;43.188;24.160;2023-01-13T06:19:41;100282.06;;;4.78;97.27
26531;BME280;14201;43.188;24.160;2023-01-13T06:24:31;100299.69;;;4.84;96.55
26531;BME280;14201;43.188;24.160;2023-01-13T06:26:57;100295.44;;;4.84;96.92
26531;BME280;14201;43.188;24.160;2023-01-13T06:29:22;100298.38;;;4.89;96.36
26531;BME280;14201;43.188;24.160;2023-01-13T06:31:48;100298.94;;;4.97;95.51
26531;BME280;14201;43.188;24.160;2023-01-13T06:34:13;100305.34;;;5.02;95.65
26531;BME280;14201;43.188;24.160;2023-01-13T06:36:43;100294.81;;;4.99;95.19
26531;BME280;14201;43.188;24.160;2023-01-13T06:39:11;100301.28;;;4.93;94.93
26531;BME280;14201;43.188;24.160;2023-01-13T06:41:39;100298.38;;;4.89;95.39
26531;BME280;14201;43.188;24.160;2023-01-13T06:44:23;100300.81;;;4.76;96.39
26531;BME280;14201;43.188;24.160;2023-01-13T06:46:50;100293.06;;;4.76;96.86
26531;BME280;14201;43.188;24.160;2023-01-13T06:49:15;100301.16;;;4.80;97.35
26531;BME280;14201;43.188;24.160;2023-01-13T06:51:40;100289.38;;;4.84;97.24
26531;BME280;14201;43.188;24.160;2023-01-13T06:54:06;100300.97;;;4.89;96.93
26531;BME280;14201;43.188;24.160;2023-01-13T06:56:31;100300.16;;;4.90;97.48
26531;BME280;14201;43.188;24.160;2023-01-13T06:58:57;100302.84;;;4.91;96.93
26531;BME280;14201;43.188;24.160;2023-01-13T07:01:22;100305.09;;;4.87;97.83
26531;BME280;14201;43.188;24.160;2023-01-13T07:03:47;100312.50;;;4.94;97.86
26531;BME280;14201;43.188;24.160;2023-01-13T07:06:13;100317.91;;;4.97;97.67
26531;BME280;14201;43.188;24.160;2023-01-13T07:08:38;100310.50;;;5.02;97.18
26531;BME280;14201;43.188;24.160;2023-01-13T07:11:04;100320.28;;;5.06;97.02
26531;BME280;14201;43.188;24.160;2023-01-13T07:13:29;100318.59;;;5.06;97.20
26531;BME280;14201;43.188;24.160;2023-01-13T07:16:13;100316.03;;;5.06;96.87
26531;BME280;14201;43.188;24.160;2023-01-13T07:18:38;100319.75;;;5.10;96.24
26531;BME280;14201;43.188;24.160;2023-01-13T07:21:04;100313.91;;;5.12;96.82
26531;BME280;14201;43.188;24.160;2023-01-13T07:23:32;100324.94;;;5.22;94.98
26531;BME280;14201;43.188;24.160;2023-01-13T07:25:58;100319.06;;;5.12;95.52
26531;BME280;14201;43.188;24.160;2023-01-13T07:28:24;100323.56;;;5.15;96.01
26531;BME280;14201;43.188;24.160;2023-01-13T07:30:50;100319.28;;;5.16;96.23
26531;BME280;14201;43.188;24.160;2023-01-13T07:33:16;100319.28;;;5.16;95.81
26531;BME280;14201;43.188;24.160;2023-01-13T07:35:42;100314.16;;;5.27;94.77
26531;BME280;14201;43.188;24.160;2023-01-13T07:38:08;100321.91;;;5.39;93.83
26531;BME280;14201;43.188;24.160;2023-01-13T07:40:33;100317.75;;;5.41;93.32
26531;BME280;14201;43.188;24.160;2023-01-13T07:42:59;100327.97;;;5.28;94.45
26531;BME280;14201;43.188;24.160;2023-01-13T07:46:03;100316.94;;;5.30;95.07
26531;BME280;14201;43.188;24.160;2023-01-13T07:48:30;100332.09;;;5.26;95.48
26531;BME280;14201;43.188;24.160;2023-01-13T07:50:56;100322.66;;;5.15;96.16
26531;BME280;14201;43.188;24.160;2023-01-13T07:53:25;100325.38;;;5.16;96.44
26531;BME280;14201;43.188;24.160;2023-01-13T07:55:53;100320.50;;;5.09;96.10
26531;BME280;14201;43.188;24.160;2023-01-13T07:58:19;100312.78;;;5.21;95.72
26531;BME280;14201;43.188;24.160;2023-01-13T08:00:44;100316.25;;;5.21;96.46
26531;BME280;14201;43.188;24.160;2023-01-13T08:03:10;100316.63;;;5.38;95.45
26531;BME280;14201;43.188;24.160;2023-01-13T08:05:35;100320.78;;;5.24;95.93
26531;BME280;14201;43.188;24.160;2023-01-13T08:08:01;100320.22;;;5.28;97.08
26531;BME280;14201;43.188;24.160;2023-01-13T08:10:26;100318.88;;;5.45;97.33
26531;BME280;14201;43.188;24.160;2023-01-13T08:12:51;100319.88;;;5.47;97.73
26531;BME280;14201;43.188;24.160;2023-01-13T08:15:35;100320.44;;;5.55;96.24
26531;BME280;14201;43.188;24.160;2023-01-13T08:18:01;100322.56;;;5.60;96.73
26531;BME280;14201;43.188;24.160;2023-01-13T08:20:26;100324.22;;;5.71;95.47
26531;BME280;14201;43.188;24.160;2023-01-13T08:22:58;100325.59;;;5.78;94.36
26531;BME280;14201;43.188;24.160;2023-01-13T08:25:24;100323.09;;;5.68;95.25
26531;BME280;14201;43.188;24.160;2023-01-13T08:27:50;100329.84;;;5.66;96.37
26531;BME280;14201;43.188;24.160;2023-01-13T08:30:16;100323.09;;;5.68;96.49
26531;BME280;14201;43.188;24.160;2023-01-13T08:32:44;100321.56;;;5.70;97.32
26531;BME280;14201;43.188;24.160;2023-01-13T08:35:10;100323.13;;;5.80;98.08
26531;BME280;14201;43.188;24.160;2023-01-13T08:37:36;100320.88;;;5.96;97.38
26531;BME280;14201;43.188;24.160;2023-01-13T08:40:01;100326.09;;;6.21;95.53
26531;BME280;14201;43.188;24.160;2023-01-13T08:42:26;100326.75;;;6.30;95.15
26531;BME280;14201;43.188;24.160;2023-01-13T08:44:52;100329.53;;;6.34;94.68
26531;BME280;14201;43.188;24.160;2023-01-13T08:47:18;100333.88;;;6.21;95.53
26531;BME280;14201;43.188;24.160;2023-01-13T08:49:44;100332.19;;;6.10;96.73
26531;BME280;14201;43.188;24.160;2023-01-13T08:52:09;100331.34;;;5.98;98.58
26531;BME280;14201;43.188;24.160;2023-01-13T08:54:36;100329.06;;;6.02;99.06
26531;BME280;14201;43.188;24.160;2023-01-13T08:57:02;100330.50;;;6.22;95.89
26531;BME280;14201;43.188;24.160;2023-01-13T08:59:27;100331.34;;;6.35;94.51
26531;BME280;14201;43.188;24.160;2023-01-13T09:01:53;100327.34;;;6.26;93.89
26531;BME280;14201;43.188;24.160;2023-01-13T09:04:19;100332.44;;;6.13;95.30
26531;BME280;14201;43.188;24.160;2023-01-13T09:06:46;100330.72;;;6.14;95.85
26531;BME280;14201;43.188;24.160;2023-01-13T09:09:11;100330.81;;;6.27;95.20
26531;BME280;14201;43.188;24.160;2023-01-13T09:11:38;100325.53;;;6.25;93.86
26531;BME280;14201;43.188;24.160;2023-01-13T09:14:24;100317.00;;;6.26;93.74
26531;BME280;14201;43.188;24.160;2023-01-13T09:16:49;100317.22;;;6.18;94.66
26531;BME280;14201;43.188;24.160;2023-01-13T09:19:15;100316.66;;;6.22;94.49
26531;BME280;14201;43.188;24.160;2023-01-13T09:21:40;100307.19;;;6.34;93.42
26531;BME280;14201;43.188;24.160;2023-01-13T09:24:06;100309.66;;;6.33;93.69
26531;BME280;14201;43.188;24.160;2023-01-13T09:26:31;100315.13;;;6.37;93.77
26531;BME280;14201;43.188;24.160;2023-01-13T09:28:57;100305.31;;;6.45;93.86
26531;BME280;14201;43.188;24.160;2023-01-13T09:31:22;100307.91;;;6.45;94.03
26531;BME280;14201;43.188;24.160;2023-01-13T09:33:48;100303.38;;;6.54;94.41
26531;BME280;14201;43.188;24.160;2023-01-13T09:36:31;100305.38;;;6.58;93.24
26531;BME280;14201;43.188;24.160;2023-01-13T09:38:57;100308.09;;;6.60;92.53
26531;BME280;14201;43.188;24.160;2023-01-13T09:41:26;100293.84;;;6.66;92.10
26531;BME280;14201;43.188;24.160;2023-01-13T09:44:16;100293.66;;;6.63;91.76
26531;BME280;14201;43.188;24.160;2023-01-13T09:46:48;100297.38;;;6.67;91.30
26531;BME280;14201;43.188;24.160;2023-01-13T09:49:17;100298.84;;;6.63;92.08
26531;BME280;14201;43.188;24.160;2023-01-13T09:51:56;100290.59;;;6.69;93.16
26531;BME280;14201;43.188;24.160;2023-01-13T09:56:47;100295.28;;;6.75;94.11
26531;BME280;14201;43.188;24.160;2023-01-13T09:59:13;100288.34;;;6.87;94.09
26531;BME280;14201;43.188;24.160;2023-01-13T10:04:24;100278.00;;;6.87;94.61
26531;BME280;14201;43.188;24.160;2023-01-13T10:06:51;100277.09;;;6.86;95.18
26531;BME280;14201;43.188;24.160;2023-01-13T10:09:18;100284.28;;;6.90;95.03
26531;BME280;14201;43.188;24.160;2023-01-13T10:11:46;100287.56;;;7.01;94.83
26531;BME280;14201;43.188;24.160;2023-01-13T10:14:37;100280.81;;;7.17;93.14
26531;BME280;14201;43.188;24.160;2023-01-13T10:19:37;100277.59;;;7.07;93.55
26531;BME280;14201;43.188;24.160;2023-01-13T10:29:45;100267.09;;;7.31;94.41
26531;BME280;14201;43.188;24.160;2023-01-13T10:32:10;100260.72;;;7.39;92.91
26531;BME280;14201;43.188;24.160;2023-01-13T10:34:45;100263.59;;;7.30;94.05
26531;BME280;14201;43.188;24.160;2023-01-13T10:37:20;100255.81;;;7.44;93.72
26531;BME280;14201;43.188;24.160;2023-01-13T10:39:46;100250.84;;;7.47;92.79
26531;BME280;14201;43.188;24.160;2023-01-13T10:42:13;100263.19;;;7.51;92.20
26531;BME280;14201;43.188;24.160;2023-01-13T10:44:46;100259.72;;;7.51;92.41
26531;BME280;14201;43.188;24.160;2023-01-13T10:47:17;100255.13;;;7.46;92.83
26531;BME280;14201;43.188;24.160;2023-01-13T10:49:44;100254.91;;;7.57;90.68
26531;BME280;14201;43.188;24.160;2023-01-13T10:52:24;100254.63;;;7.39;91.20
26531;BME280;14201;43.188;24.160;2023-01-13T10:54:53;100250.72;;;7.45;90.10
26531;BME280;14201;43.188;24.160;2023-01-13T10:57:20;100250.13;;;7.49;89.34
26531;BME280;14201;43.188;24.160;2023-01-13T10:59:46;100250.13;;;7.36;89.26
26531;BME280;14201;43.188;24.160;2023-01-13T11:04:56;100246.25;;;7.16;90.76
26531;BME280;14201;43.188;24.160;2023-01-13T11:07:40;100247.34;;;7.06;92.32
26531;BME280;14201;43.188;24.160;2023-01-13T11:12:52;100242.97;;;7.32;90.57
26531;BME280;14201;43.188;24.160;2023-01-13T11:15:22;100242.25;;;7.35;89.25
26531;BME280;14201;43.188;24.160;2023-01-13T11:18:02;100233.41;;;7.18;90.34
26531;BME280;14201;43.188;24.160;2023-01-13T11:20:31;100228.91;;;7.15;91.50
26531;BME280;14201;43.188;24.160;2023-01-13T11:23:01;100226.31;;;7.15;91.52
26531;BME280;14201;43.188;24.160;2023-01-13T11:25:31;100221.53;;;7.35;89.91
26531;BME280;14201;43.188;24.160;2023-01-13T11:30:57;100214.34;;;7.30;90.52
26531;BME280;14201;43.188;24.160;2023-01-13T11:37:02;100210.47;;;7.24;92.55
26531;BME280;14201;43.188;24.160;2023-01-13T11:41:43;100210.03;;;7.58;89.68
26531;BME280;14201;43.188;24.160;2023-01-13T11:44:12;100204.78;;;7.56;89.27
26531;BME280;14201;43.188;24.160;2023-01-13T11:46:40;100208.75;;;7.51;89.28
26531;BME280;14201;43.188;24.160;2023-01-13T11:49:05;100207.88;;;7.37;90.18
26531;BME280;14201;43.188;24.160;2023-01-13T11:51:39;100202.59;;;7.36;91.48
26531;BME280;14201;43.188;24.160;2023-01-13T11:59:26;100216.25;;;7.46;
26531;BME280;14201;43.188;24.160;2023-01-13T12:02:08;100211.47;;;7.53;91.46
26531;BME280;14201;43.188;24.160;2023-01-13T12:07:08;100208.63;;;7.63;91.47
26531;BME280;14201;43.188;24.160;2023-01-13T12:17:29;100200.44;;;7.83;88.25
26531;BME280;14201;43.188;24.160;2023-01-13T12:19:57;100201.81;;;7.78;88.31
26531;BME280;14201;43.188;24.160;2023-01-13T12:22:31;100204.22;;;7.75;88.29
26531;BME280;14201;43.188;24.160;2023-01-13T12:27:40;100204.09;;;7.45;89.65
26531;BME280;14201;43.188;24.160;2023-01-13T12:30:15;100203.00;;;7.42;90.14
26531;BME280;14201;43.188;24.160;2023-01-13T12:32:41;100200.88;;;7.49;90.13
26531;BME280;14201;43.188;24.160;2023-01-13T12:40:20;100195.91;;;7.53;90.65
26531;BME280;14201;43.188;24.160;2023-01-13T12:45:35;100194.78;;;7.62;89.08
26531;BME280;14201;43.188;24.160;2023-01-13T12:48:00;100193.97;;;7.63;88.82
26531;BME280;14201;43.188;24.160;2023-01-13T12:52:58;100192.19;;;7.62;89.38
26531;BME280;14201;43.188;24.160;2023-01-13T12:55:26;100187.91;;;7.63;89.55
26531;BME280;14201;43.188;24.160;2023-01-13T13:00:20;100204.94;;;7.59;90.81
26531;BME280;14201;43.188;24.160;2023-01-13T13:05:47;100199.44;;;7.81;89.47
26531;BME280;14201;43.188;24.160;2023-01-13T13:14:09;100205.16;;;7.91;87.50
26531;BME280;14201;43.188;24.160;2023-01-13T13:19:38;100205.91;;;7.75;89.16
26531;BME280;14201;43.188;24.160;2023-01-13T13:24:23;100205.06;;;7.61;89.48
26531;BME280;14201;43.188;24.160;2023-01-13T13:26:49;100209.50;;;7.77;89.13
26531;BME280;14201;43.188;24.160;2023-01-13T13:36:52;100212.00;;;7.75;87.87
26531;BME280;14201;43.188;24.160;2023-01-13T13:39:21;100203.63;;;7.79;87.69
26531;BME280;14201;43.188;24.160;2023-01-13T13:42:13;100214.31;;;7.71;88.70
26531;BME280;14201;43.188;24.160;2023-01-13T13:45:00;100200.13;;;7.79;87.21
26531;BME280;14201;43.188;24.160;2023-01-13T13:47:45;100207.63;;;7.74;87.41
26531;BME280;14201;43.188;24.160;2023-01-13T13:50:14;100200.47;;;7.70;88.16
26531;BME280;14201;43.188;24.160;2023-01-13T13:52:42;100209.31;;;8.02;86.93
26531;BME280;14201;43.188;24.160;2023-01-13T13:55:20;100212.94;;;7.91;87.16
26531;BME280;14201;43.188;24.160;2023-01-13T13:57:47;100208.38;;;7.86;86.88
26531;BME280;14201;43.188;24.160;2023-01-13T14:02:39;100198.13;;;7.75;86.96
26531;BME280;14201;43.188;24.160;2023-01-13T14:07:45;100199.81;;;7.87;86.60
26531;BME280;14201;43.188;24.160;2023-01-13T14:10:13;100202.41;;;7.87;86.65
26531;BME280;14201;43.188;24.160;2023-01-13T14:12:38;100203.19;;;7.86;87.06
26531;BME280;14201;43.188;24.160;2023-01-13T14:15:04;100203.19;;;7.86;87.56
26531;BME280;14201;43.188;24.160;2023-01-13T14:17:30;100204.19;;;7.88;87.79
26531;BME280;14201;43.188;24.160;2023-01-13T14:19:58;100204.00;;;7.85;88.15
26531;BME280;14201;43.188;24.160;2023-01-13T14:22:24;100214.41;;;7.72;89.04
26531;BME280;14201;43.188;24.160;2023-01-13T14:24:50;100205.63;;;7.83;89.17
26531;BME280;14201;43.188;24.160;2023-01-13T14:27:26;100212.06;;;7.90;88.68
26531;BME280;14201;43.188;24.160;2023-01-13T14:29:53;100212.34;;;7.95;88.60
26531;BME280;14201;43.188;24.160;2023-01-13T14:32:19;100203.97;;;7.99;88.79
26531;BME280;14201;43.188;24.160;2023-01-13T14:34:45;100209.31;;;8.02;89.02
26531;BME280;14201;43.188;24.160;2023-01-13T14:37:53;100205.22;;;8.05;88.36
26531;BME280;14201;43.188;24.160;2023-01-13T14:40:00;100212.91;;;8.04;88.34
26531;BME280;14201;43.188;24.160;2023-01-13T14:42:25;100207.03;;;8.06;88.53
26531;BME280;14201;43.188;24.160;2023-01-13T14:44:52;100206.31;;;8.09;88.48
26531;BME280;14201;43.188;24.160;2023-01-13T14:49:54;100212.06;;;8.18;87.78
26531;BME280;14201;43.188;24.160;2023-01-13T14:52:23;100213.13;;;8.22;87.25
26531;BME280;14201;43.188;24.160;2023-01-13T14:57:38;100211.25;;;8.19;87.02
26531;BME280;14201;43.188;24.160;2023-01-13T15:00:05;100210.78;;;8.12;87.41
26531;BME280;14201;43.188;24.160;2023-01-13T15:10:28;100212.06;;;8.18;87.04
26531;BME280;14201;43.188;24.160;2023-01-13T15:12:55;100217.31;;;8.05;87.75
26531;BME280;14201;43.188;24.160;2023-01-13T15:15:26;100213.59;;;8.15;87.21
26531;BME280;14201;43.188;24.160;2023-01-13T15:17:52;100212.66;;;8.14;86.79
26531;BME280;14201;43.188;24.160;2023-01-13T15:20:19;100215.25;;;8.14;86.99
26531;BME280;14201;43.188;24.160;2023-01-13T15:22:45;100218.09;;;8.04;86.69
26531;BME280;14201;43.188;24.160;2023-01-13T15:25:10;100216.97;;;7.85;88.03
26531;BME280;14201;43.188;24.160;2023-01-13T15:27:36;100214.41;;;7.72;88.53